Time;durP1;ratioP1;P1;durP2;ratioP2;P2;SDS_P1;SDS_P2;PMS_P1;PMS_P2;Temp;Humidity;BMP_temperature;BMP_pressure;BME280_temperature;BME280_humidity;BME280_pressure;Samples;Min_cycle;Max_cycle;Signal;HPM_P1;HPM_P2
2021/12/10 00:00:08;;;;;;;5.60;5.00;;;;;;;;;;5081096;28;20224;-77
2021/12/10 00:02:35;;;;;;;9.17;5.43;;;;;;;;;;5081885;28;20201;-77
2021/12/10 00:05:03;;;;;;;5.47;4.83;;;;;;;;;;5080388;28;20247;-78
2021/12/10 00:07:32;;;;;;;6.37;4.83;;;;;;;;;;5083490;28;20206;-78
2021/12/10 00:10:00;;;;;;;5.50;4.70;;;;;;;;;;5077649;28;20229;-78
2021/12/10 00:12:30;;;;;;;4.53;4.13;;;;;;;;;;5083215;28;20660;-77
2021/12/10 00:14:57;;;;;;;6.80;4.27;;;;;;;;;;5082845;28;20231;-77
2021/12/10 00:17:25;;;;;;;13.37;4.07;;;;;;;;;;5079141;28;20205;-78
2021/12/10 00:19:55;;;;;;;6.90;4.00;;;;;;;;;;5084146;28;20237;-77
2021/12/10 00:22:24;;;;;;;5.57;4.30;;;;;;;;;;5080430;28;20233;-78
2021/12/10 00:24:53;;;;;;;7.93;3.97;;;;;;;;;;5080771;28;20293;-78
2021/12/10 00:27:27;;;;;;;5.13;3.80;;;;;;;;;;5081623;28;20200;-78
2021/12/10 00:30:02;;;;;;;9.87;3.80;;;;;;;;;;5084466;28;20235;-78
2021/12/10 00:32:30;;;;;;;4.73;4.13;;;;;;;;;;5079297;28;20282;-77
2021/12/10 00:34:59;;;;;;;6.93;4.40;;;;;;;;;;5079936;28;20231;-78
2021/12/10 00:37:26;;;;;;;4.53;4.13;;;;;;;;;;5081248;28;20286;-77
2021/12/10 00:39:56;;;;;;;8.87;4.00;;;;;;;;;;5078987;28;20237;-78
2021/12/10 00:42:25;;;;;;;5.80;3.97;;;;;;;;;;5081039;28;20575;-78
2021/12/10 00:44:53;;;;;;;12.43;4.60;;;;;;;;;;5082899;28;20224;-78
2021/12/10 00:47:20;;;;;;;10.33;4.63;;;;;;;;;;5078879;28;20200;-78
2021/12/10 00:49:47;;;;;;;7.30;4.43;;;;;;;;;;5084774;28;20234;-78
2021/12/10 00:52:16;;;;;;;9.00;4.87;;;;;;;;;;5082748;28;20206;-77
2021/12/10 00:54:43;;;;;;;6.60;4.37;;;;;;;;;;5085499;28;20225;-78
2021/12/10 00:57:12;;;;;;;8.10;4.37;;;;;;;;;;5081134;28;20197;-77
2021/12/10 00:59:40;;;;;;;6.27;4.70;;;;;;;;;;5075622;28;20232;-78
2021/12/10 01:02:08;;;;;;;7.77;4.87;;;;;;;;;;5080194;28;20217;-77
2021/12/10 01:04:37;;;;;;;9.37;4.80;;;;;;;;;;5081669;28;20231;-78
2021/12/10 01:07:10;;;;;;;8.43;4.80;;;;;;;;;;5081527;28;20197;-78
2021/12/10 01:09:38;;;;;;;8.33;5.53;;;;;;;;;;5080722;28;20238;-77
2021/12/10 01:12:08;;;;;;;9.67;5.47;;;;;;;;;;5081728;28;20192;-77
2021/12/10 01:14:55;;;;;;;7.93;5.37;;;;;;;;;;5079534;28;20228;-77
2021/12/10 01:25:53;;;;;;;8.93;5.17;;;;;;;;;;5079373;28;20234;-79
2021/12/10 01:28:20;;;;;;;6.33;5.73;;;;;;;;;;5082336;28;20218;-78
2021/12/10 01:30:49;;;;;;;9.20;4.77;;;;;;;;;;5082413;28;20704;-78
2021/12/10 01:33:17;;;;;;;11.70;5.50;;;;;;;;;;5080591;28;20725;-79
2021/12/10 01:35:48;;;;;;;8.47;4.80;;;;;;;;;;5075138;28;20263;-79
2021/12/10 01:38:16;;;;;;;7.23;5.13;;;;;;;;;;5080122;28;20212;-80
2021/12/10 01:40:47;;;;;;;12.30;4.93;;;;;;;;;;5079216;28;20656;-77
2021/12/10 01:43:22;;;;;;;7.47;3.40;;;;;;;;;;5077806;28;20201;-78
2021/12/10 01:45:54;;;;;;;7.63;4.40;;;;;;;;;;5082569;28;20242;-78
2021/12/10 01:48:24;;;;;;;6.50;3.90;;;;;;;;;;5080095;28;20205;-77
2021/12/10 01:50:51;;;;;;;7.43;4.13;;;;;;;;;;5080888;28;20311;-77
2021/12/10 01:53:20;;;;;;;14.10;4.17;;;;;;;;;;5082551;28;20208;-78
2021/12/10 01:55:48;;;;;;;16.03;5.10;;;;;;;;;;5074280;28;20284;-77
2021/12/10 01:58:18;;;;;;;5.40;4.23;;;;;;;;;;5081033;28;20211;-79
2021/12/10 02:00:46;;;;;;;6.20;4.33;;;;;;;;;;5077661;28;20711;-79
2021/12/10 02:03:15;;;;;;;12.93;4.23;;;;;;;;;;5080353;28;20203;-79
2021/12/10 02:05:42;;;;;;;8.73;3.50;;;;;;;;;;5077337;28;20243;-79
2021/12/10 02:08:09;;;;;;;7.47;3.87;;;;;;;;;;5079059;28;20671;-79
2021/12/10 02:10:37;;;;;;;8.70;3.53;;;;;;;;;;5078247;28;20705;-79
2021/12/10 02:13:04;;;;;;;8.70;3.83;;;;;;;;;;5078184;28;20244;-79
2021/12/10 02:15:31;;;;;;;4.80;3.40;;;;;;;;;;5082423;28;20241;-80
2021/12/10 02:17:59;;;;;;;6.27;3.30;;;;;;;;;;5076347;28;20220;-79
2021/12/10 02:20:32;;;;;;;6.00;3.20;;;;;;;;;;5078410;28;20231;-79
2021/12/10 02:23:00;;;;;;;5.63;2.53;;;;;;;;;;5081664;28;20313;-79
2021/12/10 02:25:28;;;;;;;6.67;3.00;;;;;;;;;;5076130;28;20235;-79
2021/12/10 02:27:56;;;;;;;5.37;3.10;;;;;;;;;;5088762;28;20210;-79
2021/12/10 02:30:25;;;;;;;5.10;3.40;;;;;;;;;;5081785;28;20230;-79
2021/12/10 02:32:52;;;;;;;7.70;3.40;;;;;;;;;;5082574;28;20195;-79
2021/12/10 02:35:19;;;;;;;5.93;3.30;;;;;;;;;;5078236;28;20232;-79
2021/12/10 02:37:47;;;;;;;5.67;3.50;;;;;;;;;;5079212;28;20209;-79
2021/12/10 02:40:18;;;;;;;4.93;3.57;;;;;;;;;;5082477;28;20238;-79
2021/12/10 02:42:45;;;;;;;10.10;4.37;;;;;;;;;;5083017;28;20300;-79
2021/12/10 02:45:15;;;;;;;7.53;3.77;;;;;;;;;;5082695;28;20225;-79
2021/12/10 02:47:42;;;;;;;8.17;3.63;;;;;;;;;;5083459;28;20242;-79
2021/12/10 02:50:10;;;;;;;5.00;3.10;;;;;;;;;;5087011;28;20248;-79
2021/12/10 02:52:38;;;;;;;5.80;3.80;;;;;;;;;;5081008;28;20199;-79
2021/12/10 02:55:05;;;;;;;6.43;3.70;;;;;;;;;;5083777;28;20242;-79
2021/12/10 02:57:34;;;;;;;7.37;3.50;;;;;;;;;;5085259;28;20625;-79
2021/12/10 03:00:01;;;;;;;8.10;3.60;;;;;;;;;;5081482;28;20590;-79
2021/12/10 03:02:28;;;;;;;8.70;4.53;;;;;;;;;;5086225;28;20227;-79
2021/12/10 03:04:55;;;;;;;10.23;3.80;;;;;;;;;;5084213;28;20710;-79
2021/12/10 03:07:23;;;;;;;8.83;3.77;;;;;;;;;;5085803;28;20200;-79
2021/12/10 03:09:52;;;;;;;10.03;3.40;;;;;;;;;;5080678;28;20233;-79
2021/12/10 03:12:20;;;;;;;9.80;3.80;;;;;;;;;;5084918;28;20211;-79
2021/12/10 03:14:50;;;;;;;7.37;3.70;;;;;;;;;;5073518;28;20246;-79
2021/12/10 03:17:20;;;;;;;6.90;3.20;;;;;;;;;;5083424;28;20204;-79
2021/12/10 03:19:47;;;;;;;8.33;3.60;;;;;;;;;;5079153;28;20784;-79
2021/12/10 03:22:14;;;;;;;5.87;3.47;;;;;;;;;;5082937;28;20219;-79
2021/12/10 03:24:41;;;;;;;9.60;3.67;;;;;;;;;;5084641;28;20230;-79
2021/12/10 03:27:10;;;;;;;4.53;3.10;;;;;;;;;;5078857;28;20206;-79
2021/12/10 03:29:39;;;;;;;4.33;3.40;;;;;;;;;;5079944;28;20718;-80
2021/12/10 03:32:09;;;;;;;7.23;3.20;;;;;;;;;;5076218;28;20564;-79
2021/12/10 03:34:37;;;;;;;6.87;4.07;;;;;;;;;;5074132;28;20233;-79
2021/12/10 03:37:04;;;;;;;4.63;3.40;;;;;;;;;;5074274;28;20212;-79
2021/12/10 03:39:31;;;;;;;7.87;3.50;;;;;;;;;;5075678;28;20240;-79
2021/12/10 03:41:59;;;;;;;6.40;3.70;;;;;;;;;;5094918;28;20230;-79
2021/12/10 03:44:26;;;;;;;5.93;3.40;;;;;;;;;;5094486;28;20289;-79
2021/12/10 03:46:54;;;;;;;6.93;3.53;;;;;;;;;;5084000;28;20211;-79
2021/12/10 03:49:22;;;;;;;7.63;3.60;;;;;;;;;;5074224;28;20714;-79
2021/12/10 03:51:50;;;;;;;11.47;3.50;;;;;;;;;;5074305;28;20207;-80
2021/12/10 03:54:17;;;;;;;7.47;3.67;;;;;;;;;;5073660;28;20236;-79
2021/12/10 03:56:45;;;;;;;7.07;3.40;;;;;;;;;;5091682;28;20227;-79
2021/12/10 03:59:15;;;;;;;3.77;3.13;;;;;;;;;;5077696;28;20238;-79
2021/12/10 04:01:43;;;;;;;9.97;3.60;;;;;;;;;;5064134;28;20221;-79
2021/12/10 04:04:12;;;;;;;6.90;3.13;;;;;;;;;;5092680;28;20233;-79
2021/12/10 04:06:41;;;;;;;3.23;3.00;;;;;;;;;;5084286;28;20235;-79
2021/12/10 04:09:09;;;;;;;6.17;3.17;;;;;;;;;;5074088;28;20241;-79
2021/12/10 04:11:37;;;;;;;5.43;3.10;;;;;;;;;;5089780;28;20691;-79
2021/12/10 04:14:05;;;;;;;6.17;3.40;;;;;;;;;;5093756;28;20228;-79
2021/12/10 04:16:32;;;;;;;7.00;3.87;;;;;;;;;;5093983;28;20631;-79
2021/12/10 04:19:00;;;;;;;4.93;3.23;;;;;;;;;;5093764;28;20201;-79
2021/12/10 04:21:28;;;;;;;7.87;3.10;;;;;;;;;;5094149;28;20710;-79
2021/12/10 04:23:56;;;;;;;4.53;2.90;;;;;;;;;;5076214;28;20208;-79
2021/12/10 04:26:24;;;;;;;6.77;3.37;;;;;;;;;;5077650;28;20232;-80
2021/12/10 04:28:52;;;;;;;3.27;3.00;;;;;;;;;;5094438;28;20291;-79
2021/12/10 04:31:19;;;;;;;7.07;3.27;;;;;;;;;;5094829;28;20216;-79
2021/12/10 04:33:46;;;;;;;9.83;3.40;;;;;;;;;;5093414;28;20215;-78
2021/12/10 04:36:13;;;;;;;6.43;3.30;;;;;;;;;;5093629;28;20232;-79
2021/12/10 04:38:41;;;;;;;7.60;3.70;;;;;;;;;;5094162;28;20212;-78
2021/12/10 04:41:10;;;;;;;12.30;3.80;;;;;;;;;;5094207;28;20304;-78
2021/12/10 04:43:38;;;;;;;6.77;3.57;;;;;;;;;;5093533;28;20228;-79
2021/12/10 04:46:05;;;;;;;9.40;3.90;;;;;;;;;;5092440;28;20236;-78
2021/12/10 04:48:42;;;;;;;6.20;3.60;;;;;;;;;;5093153;28;20212;-78
2021/12/10 04:51:09;;;;;;;6.90;4.00;;;;;;;;;;5093172;28;20224;-79
2021/12/10 04:53:37;;;;;;;6.50;3.90;;;;;;;;;;5093622;28;20207;-78
2021/12/10 04:56:04;;;;;;;9.13;4.57;;;;;;;;;;5092264;28;20241;-78
2021/12/10 04:58:32;;;;;;;6.33;3.70;;;;;;;;;;5093547;28;20262;-78
2021/12/10 05:01:01;;;;;;;3.90;3.57;;;;;;;;;;5092647;28;20730;-79
2021/12/10 05:03:28;;;;;;;7.80;3.83;;;;;;;;;;5093100;28;20220;-78
2021/12/10 05:06:01;;;;;;;9.90;4.03;;;;;;;;;;5092241;28;20251;-79
2021/12/10 05:08:28;;;;;;;4.23;3.77;;;;;;;;;;5093043;28;20637;-79
2021/12/10 05:10:55;;;;;;;6.77;4.10;;;;;;;;;;5092818;28;20972;-78
2021/12/10 05:13:22;;;;;;;13.77;4.23;;;;;;;;;;5079596;28;20194;-79
2021/12/10 05:15:56;;;;;;;7.30;3.97;;;;;;;;;;5057068;28;20237;-78
2021/12/10 05:18:24;;;;;;;8.13;4.43;;;;;;;;;;5072818;28;20208;-78
2021/12/10 05:20:51;;;;;;;6.43;3.93;;;;;;;;;;5064632;28;20311;-78
2021/12/10 05:23:18;;;;;;;8.20;4.60;;;;;;;;;;5063005;28;20700;-77
2021/12/10 05:25:46;;;;;;;6.27;3.70;;;;;;;;;;5071629;28;20241;-77
2021/12/10 05:28:14;;;;;;;6.53;5.10;;;;;;;;;;5060079;28;20206;-76
2021/12/10 05:30:41;;;;;;;8.97;4.97;;;;;;;;;;5063817;28;20229;-78
2021/12/10 05:33:15;;;;;;;17.23;9.60;;;;;;;;;;5068090;28;20186;-76
2021/12/10 05:35:42;;;;;;;4.90;4.00;;;;;;;;;;5051579;28;20238;-78
2021/12/10 05:38:09;;;;;;;9.03;4.80;;;;;;;;;;5063390;28;20210;-78
2021/12/10 05:40:37;;;;;;;6.07;4.03;;;;;;;;;;5062807;28;20234;-78
2021/12/10 05:43:04;;;;;;;6.57;4.30;;;;;;;;;;5062751;28;20293;-78
2021/12/10 05:45:31;;;;;;;9.67;4.60;;;;;;;;;;5059181;28;20225;-79
2021/12/10 05:47:59;;;;;;;5.67;3.70;;;;;;;;;;5058141;28;20198;-78
2021/12/10 05:50:28;;;;;;;9.67;3.87;;;;;;;;;;5051634;28;20234;-79
2021/12/10 05:52:55;;;;;;;7.03;4.50;;;;;;;;;;5062623;28;20602;-78
2021/12/10 05:55:23;;;;;;;6.47;3.97;;;;;;;;;;5070385;28;20237;-78
2021/12/10 05:57:50;;;;;;;7.67;4.30;;;;;;;;;;5057031;28;20580;-79
2021/12/10 06:00:23;;;;;;;9.17;3.70;;;;;;;;;;5056899;28;20244;-78
2021/12/10 06:02:50;;;;;;;8.97;3.60;;;;;;;;;;5072137;28;20221;-77
2021/12/10 06:05:18;;;;;;;8.93;3.77;;;;;;;;;;5071932;28;20232;-77
2021/12/10 06:07:46;;;;;;;16.40;3.57;;;;;;;;;;5065994;28;20662;-78
2021/12/10 06:10:15;;;;;;;9.80;3.87;;;;;;;;;;5052121;28;20579;-76
2021/12/10 06:12:43;;;;;;;3.90;3.50;;;;;;;;;;5058760;28;20197;-76
2021/12/10 06:15:12;;;;;;;5.43;3.23;;;;;;;;;;5068821;28;20240;-76
2021/12/10 06:17:39;;;;;;;3.63;3.10;;;;;;;;;;5063970;28;20193;-76
2021/12/10 06:20:07;;;;;;;5.87;3.50;;;;;;;;;;5069085;28;20230;-76
2021/12/10 06:22:34;;;;;;;3.63;3.33;;;;;;;;;;5058491;28;20218;-76
2021/12/10 06:25:03;;;;;;;7.30;3.53;;;;;;;;;;5065843;28;20583;-76
2021/12/10 06:27:30;;;;;;;8.43;3.47;;;;;;;;;;5060593;28;20594;-76
2021/12/10 06:29:57;;;;;;;5.17;3.30;;;;;;;;;;5059663;28;21083;-76
2021/12/10 06:32:26;;;;;;;6.57;3.50;;;;;;;;;;5065342;28;20271;-76
2021/12/10 06:34:53;;;;;;;5.70;3.57;;;;;;;;;;5056785;28;20631;-77
2021/12/10 06:37:20;;;;;;;7.10;3.90;;;;;;;;;;5064102;28;20198;-78
2021/12/10 06:39:47;;;;;;;5.37;3.93;;;;;;;;;;5064430;28;20240;-76
2021/12/10 06:42:16;;;;;;;15.50;3.97;;;;;;;;;;5052147;28;20218;-76
2021/12/10 06:44:43;;;;;;;6.47;3.70;;;;;;;;;;5062540;28;20352;-77
2021/12/10 06:47:10;;;;;;;6.97;4.17;;;;;;;;;;5066332;28;20217;-77
2021/12/10 06:49:37;;;;;;;4.30;3.60;;;;;;;;;;5057805;28;20241;-76
2021/12/10 06:52:05;;;;;;;4.30;3.90;;;;;;;;;;5057557;28;20201;-77
2021/12/10 06:54:32;;;;;;;4.50;3.73;;;;;;;;;;5054375;28;20236;-76
2021/12/10 06:56:59;;;;;;;4.53;2.80;;;;;;;;;;5060075;28;20212;-77
2021/12/10 06:59:27;;;;;;;8.87;3.63;;;;;;;;;;5071307;28;20700;-77
2021/12/10 07:01:54;;;;;;;6.97;4.30;;;;;;;;;;5055585;28;20201;-77
2021/12/10 07:04:22;;;;;;;8.80;3.73;;;;;;;;;;5062082;28;20624;-77
2021/12/10 07:06:49;;;;;;;4.60;3.73;;;;;;;;;;5058924;28;20604;-77
2021/12/10 07:09:18;;;;;;;8.40;4.00;;;;;;;;;;5071542;28;20236;-74
2021/12/10 07:11:45;;;;;;;5.40;3.77;;;;;;;;;;5069779;28;20209;-76
2021/12/10 07:14:13;;;;;;;4.63;4.20;;;;;;;;;;5064893;28;20241;-78
2021/12/10 07:16:41;;;;;;;4.97;4.27;;;;;;;;;;5075634;28;20221;-76
2021/12/10 07:19:09;;;;;;;6.63;4.00;;;;;;;;;;5075356;28;20224;-75
2021/12/10 07:21:36;;;;;;;4.13;3.70;;;;;;;;;;5072475;28;20208;-75
2021/12/10 07:24:05;;;;;;;7.83;3.83;;;;;;;;;;5065080;28;20236;-76
2021/12/10 07:26:33;;;;;;;7.60;4.27;;;;;;;;;;5068923;28;20227;-75
2021/12/10 07:29:00;;;;;;;12.83;4.13;;;;;;;;;;5062042;28;20204;-75
2021/12/10 07:31:28;;;;;;;4.13;3.57;;;;;;;;;;5075163;28;20215;-74
2021/12/10 07:33:56;;;;;;;4.80;3.87;;;;;;;;;;5066434;28;20209;-75
2021/12/10 07:36:24;;;;;;;4.97;3.83;;;;;;;;;;5074639;28;20228;-75
2021/12/10 07:38:51;;;;;;;4.17;3.77;;;;;;;;;;5074416;28;20572;-76
2021/12/10 07:41:18;;;;;;;7.33;3.90;;;;;;;;;;5057512;28;20228;-75
2021/12/10 07:43:45;;;;;;;7.80;3.90;;;;;;;;;;5063603;28;20228;-77
2021/12/10 07:46:13;;;;;;;7.83;3.77;;;;;;;;;;5071586;28;20593;-77
2021/12/10 07:48:41;;;;;;;6.43;3.57;;;;;;;;;;5063312;28;20213;-77
2021/12/10 07:51:11;;;;;;;7.97;3.60;;;;;;;;;;5043613;28;20233;-75
2021/12/10 07:53:39;;;;;;;4.60;3.73;;;;;;;;;;5037431;28;20206;-75
2021/12/10 07:56:07;;;;;;;4.17;3.17;;;;;;;;;;5048362;28;20331;-75
2021/12/10 07:58:37;;;;;;;6.43;3.70;;;;;;;;;;5054414;28;20206;-76
2021/12/10 08:01:07;;;;;;;9.87;3.90;;;;;;;;;;5046621;28;20261;-76
2021/12/10 08:03:34;;;;;;;11.43;3.30;;;;;;;;;;5033442;28;20236;-76
2021/12/10 08:06:01;;;;;;;6.47;3.57;;;;;;;;;;5033183;28;20241;-76
2021/12/10 08:08:30;;;;;;;7.17;4.20;;;;;;;;;;5035244;28;20305;-77
2021/12/10 08:10:57;;;;;;;6.50;3.93;;;;;;;;;;5035182;28;20244;-76
2021/12/10 08:13:24;;;;;;;16.47;5.97;;;;;;;;;;5036048;28;20236;-75
2021/12/10 08:15:52;;;;;;;7.50;4.00;;;;;;;;;;5033419;28;20771;-75
2021/12/10 08:18:19;;;;;;;4.67;2.53;;;;;;;;;;5033656;28;20217;-76
2021/12/10 08:20:46;;;;;;;4.73;2.90;;;;;;;;;;5033062;28;20735;-77
2021/12/10 08:23:13;;;;;;;4.27;3.20;;;;;;;;;;5033556;28;20705;-76
2021/12/10 08:25:41;;;;;;;3.60;2.80;;;;;;;;;;5032684;28;20245;-76
2021/12/10 08:28:09;;;;;;;3.10;2.43;;;;;;;;;;5033849;28;20216;-76
2021/12/10 08:30:36;;;;;;;8.37;2.47;;;;;;;;;;5052507;28;20585;-76
2021/12/10 08:33:11;;;;;;;3.53;2.63;;;;;;;;;;5053803;28;20570;-76
2021/12/10 08:35:38;;;;;;;3.27;2.80;;;;;;;;;;5055398;28;20340;-76
2021/12/10 08:38:05;;;;;;;4.63;3.33;;;;;;;;;;5054229;28;20554;-76
2021/12/10 08:40:33;;;;;;;2.53;2.37;;;;;;;;;;5043855;28;20751;-76
2021/12/10 08:43:02;;;;;;;5.93;2.70;;;;;;;;;;5033095;28;20206;-76
2021/12/10 08:45:29;;;;;;;8.97;3.30;;;;;;;;;;5032732;28;20388;-76
2021/12/10 08:47:57;;;;;;;3.53;2.70;;;;;;;;;;5033272;28;20599;-76
2021/12/10 08:50:26;;;;;;;5.57;2.90;;;;;;;;;;5032935;28;20237;-75
2021/12/10 08:52:56;;;;;;;7.30;3.33;;;;;;;;;;5033159;28;20267;-76
2021/12/10 08:55:24;;;;;;;3.70;3.10;;;;;;;;;;5036942;28;20233;-76
2021/12/10 08:57:51;;;;;;;3.50;3.20;;;;;;;;;;5053154;28;20209;-76
2021/12/10 09:00:20;;;;;;;4.33;2.97;;;;;;;;;;5052160;28;20238;-76
2021/12/10 09:02:47;;;;;;;10.10;3.10;;;;;;;;;;5053027;28;20210;-77
2021/12/10 09:05:14;;;;;;;4.63;3.30;;;;;;;;;;5075908;22;20256;-77
2021/12/10 09:07:43;;;;;;;4.07;3.20;;;;;;;;;;5053585;28;20198;-77
2021/12/10 09:10:11;;;;;;;3.90;3.07;;;;;;;;;;5041696;28;20230;-77
2021/12/10 09:12:39;;;;;;;3.37;3.07;;;;;;;;;;5032533;28;20195;-78
2021/12/10 09:15:07;;;;;;;7.83;3.00;;;;;;;;;;5033983;28;20240;-77
2021/12/10 09:17:36;;;;;;;5.00;3.20;;;;;;;;;;5033020;28;20212;-77
2021/12/10 09:20:05;;;;;;;4.47;3.07;;;;;;;;;;5032148;28;20317;-77
2021/12/10 09:22:33;;;;;;;4.50;3.00;;;;;;;;;;5032698;28;20224;-77
2021/12/10 09:25:00;;;;;;;5.17;3.43;;;;;;;;;;5031472;28;20698;-77
2021/12/10 09:27:27;;;;;;;5.07;2.93;;;;;;;;;;5027428;28;20202;-77
2021/12/10 09:29:56;;;;;;;2.93;2.73;;;;;;;;;;5012002;28;20242;-77
2021/12/10 09:32:24;;;;;;;3.83;3.33;;;;;;;;;;5012664;28;20207;-77
2021/12/10 09:34:53;;;;;;;4.20;3.10;;;;;;;;;;5011222;28;20316;-77
2021/12/10 09:37:22;;;;;;;8.60;3.40;;;;;;;;;;5011871;28;20648;-77
2021/12/10 09:39:50;;;;;;;5.10;2.83;;;;;;;;;;5011822;28;20290;-77
2021/12/10 09:42:17;;;;;;;7.43;3.53;;;;;;;;;;5012331;28;20683;-77
2021/12/10 09:44:44;;;;;;;10.20;3.17;;;;;;;;;;5011692;28;20238;-77
2021/12/10 09:47:14;;;;;;;4.00;2.93;;;;;;;;;;5012456;28;20234;-77
2021/12/10 09:49:42;;;;;;;3.53;2.80;;;;;;;;;;5011971;28;20281;-77
2021/12/10 09:52:11;;;;;;;4.23;3.50;;;;;;;;;;5007387;28;20211;-78
2021/12/10 09:54:40;;;;;;;4.47;3.23;;;;;;;;;;5011144;28;20230;-77
2021/12/10 09:57:09;;;;;;;4.47;3.20;;;;;;;;;;5011854;28;20223;-77
2021/12/10 09:59:37;;;;;;;4.40;3.03;;;;;;;;;;5004086;28;20260;-77
2021/12/10 10:02:04;;;;;;;5.20;3.20;;;;;;;;;;5011412;28;20594;-77
2021/12/10 10:04:34;;;;;;;5.90;3.37;;;;;;;;;;5020661;28;20651;-77
2021/12/10 10:07:05;;;;;;;3.40;3.10;;;;;;;;;;5019705;28;20258;-78
2021/12/10 10:09:34;;;;;;;8.00;3.90;;;;;;;;;;5019366;28;20701;-78
2021/12/10 10:12:03;;;;;;;4.67;3.30;;;;;;;;;;5015342;28;20207;-77
2021/12/10 10:14:31;;;;;;;8.10;3.23;;;;;;;;;;5031280;28;20611;-79
2021/12/10 10:16:58;;;;;;;6.73;3.60;;;;;;;;;;5031754;28;20226;-79
2021/12/10 10:19:26;;;;;;;2.93;2.70;;;;;;;;;;5030857;28;20226;-79
2021/12/10 10:21:56;;;;;;;5.33;3.37;;;;;;;;;;5031643;28;20199;-79
2021/12/10 10:24:24;;;;;;;7.10;4.27;;;;;;;;;;5031146;28;20593;-79
2021/12/10 10:26:59;;;;;;;4.87;3.27;;;;;;;;;;5031716;28;20222;-79
2021/12/10 10:29:27;;;;;;;6.80;3.47;;;;;;;;;;5032128;28;20237;-79
2021/12/10 10:31:56;;;;;;;5.13;3.67;;;;;;;;;;5033023;28;20217;-79
2021/12/10 10:34:24;;;;;;;4.90;3.00;;;;;;;;;;5031697;28;20241;-78
2021/12/10 10:36:51;;;;;;;6.17;3.33;;;;;;;;;;5033463;28;20234;-80
2021/12/10 10:39:20;;;;;;;5.37;2.97;;;;;;;;;;5033113;28;20236;-79
2021/12/10 10:41:49;;;;;;;6.60;3.37;;;;;;;;;;5031794;28;20655;-79
2021/12/10 10:44:18;;;;;;;3.63;3.33;;;;;;;;;;5023540;28;20582;-79
2021/12/10 10:46:46;;;;;;;7.53;3.17;;;;;;;;;;5022388;28;20227;-79
2021/12/10 10:49:30;;;;;;;7.77;3.63;;;;;;;;;;5024554;28;20605;-78
2021/12/10 10:51:57;;;;;;;7.43;3.50;;;;;;;;;;5019640;28;20623;-80
2021/12/10 10:54:31;;;;;;;4.87;3.03;;;;;;;;;;5004615;28;20231;-80
2021/12/10 10:56:58;;;;;;;5.27;3.47;;;;;;;;;;5033620;28;20219;-79
2021/12/10 10:59:27;;;;;;;4.80;3.23;;;;;;;;;;5035937;28;20237;-79
2021/12/10 11:01:59;;;;;;;8.07;3.00;;;;;;;;;;5031277;28;20249;-80
2021/12/10 11:04:32;;;;;;;6.13;3.40;;;;;;;;;;5032436;28;20246;-79
2021/12/10 11:07:05;;;;;;;5.07;3.30;;;;;;;;;;5019574;28;20651;-79
2021/12/10 11:09:35;;;;;;;3.27;3.00;;;;;;;;;;5028892;28;20247;-80
2021/12/10 11:12:04;;;;;;;5.70;3.43;;;;;;;;;;5016992;28;20216;-80
2021/12/10 11:14:33;;;;;;;4.60;3.13;;;;;;;;;;5015090;28;20725;-80
2021/12/10 11:17:04;;;;;;;6.33;3.33;;;;;;;;;;5035114;28;20258;-80
2021/12/10 11:19:31;;;;;;;3.40;2.93;;;;;;;;;;5018927;28;20550;-79
2021/12/10 11:22:01;;;;;;;5.00;3.17;;;;;;;;;;5017839;28;20265;-79
2021/12/10 11:24:35;;;;;;;6.93;3.30;;;;;;;;;;5016389;28;20235;-80
2021/12/10 11:27:04;;;;;;;5.10;2.90;;;;;;;;;;5016549;28;20226;-80
2021/12/10 11:29:36;;;;;;;4.33;3.30;;;;;;;;;;5020281;28;20231;-80
2021/12/10 11:32:05;;;;;;;3.57;2.30;;;;;;;;;;5021728;28;20294;-81
2021/12/10 11:34:42;;;;;;;8.33;3.10;;;;;;;;;;5021332;28;20612;-81
2021/12/10 11:37:09;;;;;;;3.00;2.70;;;;;;;;;;5019192;28;20230;-80
2021/12/10 11:39:47;;;;;;;3.77;3.00;;;;;;;;;;5020577;28;20282;-81
2021/12/10 11:42:31;;;;;;;4.77;3.30;;;;;;;;;;5019884;28;20219;-80
2021/12/10 11:47:45;;;;;;;5.87;3.00;;;;;;;;;;5014016;28;20668;-78
2021/12/10 11:50:18;;;;;;;3.33;2.67;;;;;;;;;;5013888;28;20231;-79
2021/12/10 11:52:45;;;;;;;5.80;2.90;;;;;;;;;;5014716;28;20204;-78
2021/12/10 11:55:12;;;;;;;3.43;3.00;;;;;;;;;;5012930;28;20745;-78
2021/12/10 11:57:41;;;;;;;5.50;3.27;;;;;;;;;;5014235;28;20706;-79
2021/12/10 12:00:12;;;;;;;5.50;3.30;;;;;;;;;;5013017;28;20261;-78
2021/12/10 12:02:48;;;;;;;5.87;3.43;;;;;;;;;;5013655;28;20203;-79
2021/12/10 12:05:17;;;;;;;4.70;2.43;;;;;;;;;;5013104;28;20238;-79
2021/12/10 12:07:44;;;;;;;3.50;2.33;;;;;;;;;;5013499;28;20220;-79
2021/12/10 12:10:18;;;;;;;4.93;3.10;;;;;;;;;;5013323;28;20240;-79
2021/12/10 12:12:47;;;;;;;3.00;2.70;;;;;;;;;;5013541;28;20212;-79
2021/12/10 12:15:21;;;;;;;5.47;2.70;;;;;;;;;;5012965;28;20239;-79
2021/12/10 12:17:50;;;;;;;5.53;3.07;;;;;;;;;;5013264;28;20700;-78
2021/12/10 12:20:28;;;;;;;4.13;2.73;;;;;;;;;;5013413;28;20252;-79
2021/12/10 12:25:45;;;;;;;2.97;2.60;;;;;;;;;;5012829;28;20236;-80
2021/12/10 12:28:13;;;;;;;2.87;2.67;;;;;;;;;;5013573;28;20591;-79
2021/12/10 12:30:56;;;;;;;3.60;2.90;;;;;;;;;;5016081;28;20236;-79
2021/12/10 12:33:25;;;;;;;4.00;3.30;;;;;;;;;;5013726;28;20706;-79
2021/12/10 12:35:52;;;;;;;3.30;3.00;;;;;;;;;;5035055;28;20226;-78
2021/12/10 12:38:21;;;;;;;3.10;2.90;;;;;;;;;;5052898;28;20621;-79
2021/12/10 12:41:04;;;;;;;4.10;3.00;;;;;;;;;;5034920;28;20234;-79
2021/12/10 12:43:31;;;;;;;3.73;2.67;;;;;;;;;;5033270;28;20739;-79
2021/12/10 12:46:04;;;;;;;2.93;2.67;;;;;;;;;;5031835;28;20238;-79
2021/12/10 12:48:32;;;;;;;4.13;3.13;;;;;;;;;;5034323;28;20230;-78
2021/12/10 12:51:02;;;;;;;3.80;2.93;;;;;;;;;;5012895;28;20232;-79
2021/12/10 12:53:33;;;;;;;6.50;2.80;;;;;;;;;;5013181;28;20243;-79
2021/12/10 12:56:03;;;;;;;5.80;2.73;;;;;;;;;;5013255;28;20244;-78
2021/12/10 12:58:31;;;;;;;3.97;2.90;;;;;;;;;;5012799;28;20666;-79
2021/12/10 13:01:02;;;;;;;2.90;2.70;;;;;;;;;;5012386;28;20233;-78
2021/12/10 13:03:33;;;;;;;3.60;3.20;;;;;;;;;;5013227;28;20194;-78
2021/12/10 13:06:04;;;;;;;3.97;2.83;;;;;;;;;;5012137;28;20242;-79
2021/12/10 13:08:35;;;;;;;4.30;3.13;;;;;;;;;;5012545;28;20678;-78
2021/12/10 13:11:08;;;;;;;3.73;2.97;;;;;;;;;;5013901;28;20268;-78
2021/12/10 13:13:38;;;;;;;8.43;3.33;;;;;;;;;;5027280;28;20216;-79
2021/12/10 13:16:08;;;;;;;3.87;3.10;;;;;;;;;;5031467;28;20243;-79
2021/12/10 13:18:38;;;;;;;3.80;3.30;;;;;;;;;;5031862;28;20728;-78
2021/12/10 13:21:06;;;;;;;3.60;2.97;;;;;;;;;;5031752;28;20230;-79
2021/12/10 13:23:33;;;;;;;3.50;3.20;;;;;;;;;;5033227;28;20347;-78
2021/12/10 13:26:01;;;;;;;5.67;3.47;;;;;;;;;;5032114;28;20238;-78
2021/12/10 13:28:29;;;;;;;2.90;2.70;;;;;;;;;;5031902;28;20685;-79
2021/12/10 13:30:57;;;;;;;4.20;3.50;;;;;;;;;;5032809;28;20234;-78
2021/12/10 13:33:26;;;;;;;5.00;2.90;;;;;;;;;;5014540;28;20210;-78
2021/12/10 13:35:55;;;;;;;3.30;3.00;;;;;;;;;;5011930;28;20234;-78
2021/12/10 13:38:22;;;;;;;4.90;3.57;;;;;;;;;;5012090;28;20211;-78
2021/12/10 13:40:50;;;;;;;4.43;3.30;;;;;;;;;;5012545;28;20244;-78
2021/12/10 13:43:18;;;;;;;3.97;2.90;;;;;;;;;;5018303;28;20598;-78
2021/12/10 13:45:48;;;;;;;3.80;2.80;;;;;;;;;;5019829;28;20260;-78
2021/12/10 13:48:16;;;;;;;2.97;2.73;;;;;;;;;;5004942;28;20197;-78
2021/12/10 13:50:45;;;;;;;3.40;2.70;;;;;;;;;;5022839;28;20239;-79
2021/12/10 13:53:14;;;;;;;5.83;3.33;;;;;;;;;;5027040;28;20206;-79
2021/12/10 13:55:43;;;;;;;3.60;2.73;;;;;;;;;;5020655;28;20233;-78
2021/12/10 13:58:18;;;;;;;2.73;2.50;;;;;;;;;;4992377;28;20695;-78
2021/12/10 14:00:47;;;;;;;3.93;3.07;;;;;;;;;;4992287;28;20237;-78
2021/12/10 14:03:14;;;;;;;3.03;2.47;;;;;;;;;;4992191;28;20262;-78
2021/12/10 14:05:42;;;;;;;3.90;3.50;;;;;;;;;;4991707;28;20249;-79
2021/12/10 14:08:15;;;;;;;3.20;2.87;;;;;;;;;;4992364;28;20423;-77
2021/12/10 14:10:44;;;;;;;6.23;3.40;;;;;;;;;;4993583;28;20307;-80
2021/12/10 14:13:12;;;;;;;5.77;4.17;;;;;;;;;;4994537;28;20210;-78
2021/12/10 14:15:45;;;;;;;3.57;3.27;;;;;;;;;;4993993;28;20238;-79
2021/12/10 14:18:15;;;;;;;5.87;4.17;;;;;;;;;;4993086;28;20226;-79
2021/12/10 14:20:44;;;;;;;4.97;4.13;;;;;;;;;;4992365;28;20244;-79
2021/12/10 14:23:14;;;;;;;4.37;3.10;;;;;;;;;;4995401;28;20645;-78
2021/12/10 14:25:46;;;;;;;6.57;3.60;;;;;;;;;;4995813;28;20237;-78
2021/12/10 14:28:14;;;;;;;3.00;2.60;;;;;;;;;;4997354;28;20219;-79
2021/12/10 14:30:44;;;;;;;3.97;2.90;;;;;;;;;;5009632;28;20244;-79
2021/12/10 14:33:25;;;;;;;8.10;5.17;;;;;;;;;;5017153;28;20220;-79
2021/12/10 14:35:55;;;;;;;4.67;3.40;;;;;;;;;;5016896;28;20246;-79
2021/12/10 14:38:34;;;;;;;3.60;2.97;;;;;;;;;;5017259;28;20215;-79
2021/12/10 14:41:06;;;;;;;5.07;3.30;;;;;;;;;;5015997;28;20790;-79
2021/12/10 14:43:38;;;;;;;7.73;4.17;;;;;;;;;;5018828;28;20250;-79
2021/12/10 14:46:10;;;;;;;3.27;2.97;;;;;;;;;;5019675;28;20778;-80
2021/12/10 14:48:39;;;;;;;6.67;3.60;;;;;;;;;;5021226;28;20561;-81
2021/12/10 14:51:08;;;;;;;6.40;3.93;;;;;;;;;;5019934;28;20226;-81
2021/12/10 14:53:36;;;;;;;3.33;3.03;;;;;;;;;;5014284;28;20199;-80
2021/12/10 14:56:24;;;;;;;4.50;3.73;;;;;;;;;;5018535;28;20703;-81
2021/12/10 14:59:18;;;;;;;3.17;2.87;;;;;;;;;;5017819;28;20282;-80
2021/12/10 15:01:49;;;;;;;7.10;4.20;;;;;;;;;;4995765;28;20203;-80
2021/12/10 15:04:31;;;;;;;5.00;3.60;;;;;;;;;;5017101;28;20594;-80
2021/12/10 15:07:00;;;;;;;3.50;3.20;;;;;;;;;;5049978;22;20239;-76